createdAt,value
2019-03-30T00:02:22.786Z,95147.60
2019-03-30T00:04:51.454Z,95146.86
2019-03-30T00:07:20.150Z,95147.81
2019-03-30T00:09:48.934Z,95142.97
2019-03-30T00:12:17.619Z,95148.28
2019-03-30T00:14:46.409Z,95147.77
2019-03-30T00:17:15.093Z,95149.86
2019-03-30T00:19:43.878Z,95155.00
2019-03-30T00:22:12.570Z,95148.90
2019-03-30T00:24:41.561Z,95151.38
2019-03-30T00:27:10.249Z,95144.39
2019-03-30T00:29:39.038Z,95147.86
2019-03-30T00:32:07.724Z,95150.45
2019-03-30T00:34:36.513Z,95143.63
2019-03-30T00:37:05.299Z,95141.92
2019-03-30T00:39:34.092Z,95139.73
2019-03-30T00:42:02.789Z,95140.78
2019-03-30T00:44:31.477Z,95140.83
2019-03-30T00:47:00.133Z,95138.03
2019-03-30T00:49:28.937Z,95135.88
2019-03-30T00:51:57.629Z,95134.66
2019-03-30T00:54:26.418Z,95130.05
2019-03-30T00:56:55.229Z,95130.42
2019-03-30T00:59:24.091Z,95127.62
2019-03-30T01:01:52.801Z,95128.98
2019-03-30T01:04:21.643Z,95122.34
2019-03-30T01:06:50.363Z,95122.77
2019-03-30T01:09:19.151Z,95122.67
2019-03-30T01:11:47.834Z,95117.78
2019-03-30T01:14:16.631Z,95112.16
2019-03-30T01:16:45.409Z,95108.31
2019-03-30T01:19:14.098Z,95112.20
2019-03-30T01:21:42.785Z,95111.16
2019-03-30T01:24:11.463Z,95116.52
2019-03-30T01:26:40.158Z,95110.20
2019-03-30T01:29:08.838Z,95108.70
2019-03-30T01:31:37.633Z,95108.47
2019-03-30T01:34:06.339Z,95109.65
2019-03-30T01:36:35.102Z,95102.89
2019-03-30T01:39:04.818Z,95099.32
2019-03-30T01:41:33.505Z,95094.11
2019-03-30T01:44:02.187Z,95092.55
2019-03-30T01:46:30.977Z,95091.80
2019-03-30T01:49:01.431Z,95091.31
2019-03-30T01:51:30.192Z,95088.73
2019-03-30T01:53:58.985Z,95086.18
2019-03-30T01:56:27.673Z,95088.25
2019-03-30T01:58:56.353Z,95081.46
2019-03-30T02:01:25.139Z,95095.81
2019-03-30T02:03:53.822Z,95092.02
2019-03-30T02:06:22.881Z,95093.73
2019-03-30T02:08:51.615Z,95091.16
2019-03-30T02:11:20.296Z,95088.80
2019-03-30T02:13:48.982Z,95090.27
2019-03-30T02:16:17.681Z,95095.20
2019-03-30T02:18:46.463Z,95094.00
2019-03-30T02:21:15.157Z,95091.45
2019-03-30T02:23:43.940Z,95094.42
2019-03-30T02:26:12.730Z,95093.14
2019-03-30T02:28:41.439Z,95097.41
2019-03-30T02:31:10.105Z,95093.75
2019-03-30T02:33:38.893Z,95090.05
2019-03-30T02:36:07.592Z,95092.08
2019-03-30T02:38:36.261Z,95096.38
2019-03-30T02:41:05.359Z,95095.12
2019-03-30T02:43:36.296Z,95088.36
2019-03-30T02:46:04.984Z,95086.41
2019-03-30T02:48:33.672Z,95089.30
2019-03-30T02:51:02.459Z,95086.88
2019-03-30T02:53:31.252Z,95089.66
2019-03-30T02:55:59.933Z,95085.13
2019-03-30T02:58:28.617Z,95080.63
2019-03-30T03:00:57.324Z,95082.77
2019-03-30T03:03:25.995Z,95090.16
2019-03-30T03:05:54.790Z,95096.59
2019-03-30T03:08:23.467Z,95092.12
2019-03-30T03:10:52.158Z,95085.87
2019-03-30T03:13:21.159Z,95092.52
2019-03-30T03:15:49.758Z,95085.06
2019-03-30T03:18:18.541Z,95087.69
2019-03-30T03:20:47.216Z,95086.21
2019-03-30T03:23:15.913Z,95090.36
2019-03-30T03:25:44.687Z,95088.48
2019-03-30T03:28:13.675Z,95083.97
2019-03-30T03:30:42.400Z,95089.55
2019-03-30T03:33:11.054Z,95085.78
2019-03-30T03:35:39.736Z,95087.00
2019-03-30T03:38:08.402Z,95085.45
2019-03-30T03:40:37.106Z,95083.50
2019-03-30T03:43:05.793Z,95089.42
2019-03-30T03:45:34.686Z,95083.50
2019-03-30T03:48:03.369Z,95076.56
2019-03-30T03:50:43.252Z,95079.33
2019-03-30T03:53:13.568Z,95087.09
2019-03-30T03:55:42.847Z,95079.22
2019-03-30T03:58:12.186Z,95081.64
2019-03-30T04:00:41.340Z,95076.33
2019-03-30T04:03:11.261Z,95078.81
2019-03-30T04:05:40.364Z,95082.99
2019-03-30T04:08:09.462Z,95077.81
2019-03-30T04:10:38.747Z,95086.77
2019-03-30T04:13:09.178Z,95082.14
2019-03-30T04:15:42.713Z,95076.36
2019-03-30T04:18:11.379Z,95080.39
2019-03-30T04:20:40.159Z,95074.67
2019-03-30T04:23:08.839Z,95069.63
2019-03-30T04:25:37.530Z,95071.65
2019-03-30T04:28:06.323Z,95074.61
2019-03-30T04:30:35.041Z,95076.69
2019-03-30T04:33:03.794Z,95084.03
2019-03-30T04:35:32.495Z,95080.66
2019-03-30T04:38:01.179Z,95084.36
2019-03-30T04:40:29.852Z,95084.91
2019-03-30T04:42:58.455Z,95082.82
2019-03-30T04:45:27.225Z,95084.09
2019-03-30T04:47:55.931Z,95082.95
2019-03-30T04:50:24.704Z,95086.85
2019-03-30T04:52:53.385Z,95089.30
2019-03-30T04:55:22.157Z,95087.38
2019-03-30T04:57:50.865Z,95082.09
2019-03-30T05:00:19.748Z,95084.22
2019-03-30T05:02:48.434Z,95084.48
2019-03-30T05:05:17.226Z,95079.54
2019-03-30T05:07:46.953Z,95083.62
2019-03-30T05:10:15.612Z,95081.62
2019-03-30T05:12:44.316Z,95080.48
2019-03-30T05:15:12.994Z,95082.56
2019-03-30T05:17:47.659Z,95086.46
2019-03-30T05:20:12.104Z,95089.34
2019-03-30T05:22:40.793Z,95088.47
2019-03-30T05:25:09.697Z,95088.94
2019-03-30T05:27:38.373Z,95094.31
2019-03-30T05:30:07.990Z,95092.06
2019-03-30T05:32:36.774Z,95091.87
2019-03-30T05:35:07.262Z,95095.77
2019-03-30T05:37:35.920Z,95093.00
2019-03-30T05:40:06.934Z,95096.22
2019-03-30T05:42:35.719Z,95101.31
2019-03-30T05:45:06.201Z,95095.84
2019-03-30T05:47:34.924Z,95103.88
2019-03-30T05:50:04.540Z,95104.33
2019-03-30T05:52:35.601Z,95106.63
2019-03-30T05:55:03.754Z,95109.55
2019-03-30T05:57:32.539Z,95115.41
2019-03-30T06:00:01.157Z,95109.98
2019-03-30T06:02:32.183Z,95116.09
2019-03-30T06:05:03.374Z,95111.87
2019-03-30T06:07:31.262Z,95111.88
2019-03-30T06:09:59.883Z,95112.08
2019-03-30T06:12:28.631Z,95112.09
2019-03-30T06:14:57.305Z,95104.46
2019-03-30T06:17:26.014Z,95107.22
2019-03-30T06:19:54.699Z,95111.98
2019-03-30T06:22:23.388Z,95104.32
2019-03-30T06:24:52.113Z,95103.38
2019-03-30T06:27:20.795Z,95099.19
2019-03-30T06:30:23.790Z,95097.88
2019-03-30T06:32:52.522Z,95093.73
2019-03-30T06:35:21.192Z,95096.61
2019-03-30T06:37:49.930Z,95092.58
2019-03-30T06:40:18.597Z,95089.20
2019-03-30T06:42:50.453Z,95087.27
2019-03-30T06:45:19.154Z,95088.57
2019-03-30T06:47:47.926Z,95083.10
2019-03-30T06:50:16.905Z,95076.25
2019-03-30T06:52:56.732Z,95073.58
2019-03-30T06:55:16.131Z,95078.27
2019-03-30T06:57:44.765Z,95077.78
2019-03-30T07:00:13.542Z,95076.49
2019-03-30T07:02:42.877Z,95077.28
2019-03-30T07:05:13.634Z,95078.02
2019-03-30T07:07:45.061Z,95073.60
2019-03-30T07:10:14.171Z,95075.59
2019-03-30T07:12:42.862Z,95079.51
2019-03-30T07:15:11.872Z,95076.56
2019-03-30T07:17:46.159Z,95071.95
2019-03-30T07:20:17.902Z,95067.55
2019-03-30T07:22:46.767Z,95071.56
2019-03-30T07:25:15.461Z,95063.96
2019-03-30T07:27:44.092Z,95061.84
2019-03-30T07:30:12.959Z,95062.50
2019-03-30T07:32:41.621Z,95060.11
2019-03-30T07:35:11.912Z,95059.56
2019-03-30T07:37:40.711Z,95058.20
2019-03-30T07:40:09.377Z,95057.98
2019-03-30T07:42:38.242Z,95051.62
2019-03-30T07:45:07.465Z,95055.64
2019-03-30T07:47:36.157Z,95053.30
2019-03-30T07:50:09.890Z,95050.46
2019-03-30T07:52:38.630Z,95046.23
2019-03-30T07:55:07.362Z,95049.17
2019-03-30T07:57:36.045Z,95047.75
2019-03-30T08:00:09.390Z,95043.69
2019-03-30T08:02:38.093Z,95035.97
2019-03-30T08:05:07.971Z,95041.58
2019-03-30T08:07:36.597Z,95033.13
2019-03-30T08:10:06.479Z,95033.75
2019-03-30T08:12:36.953Z,95032.27
2019-03-30T08:15:09.086Z,95024.52
2019-03-30T08:17:37.709Z,95023.07
2019-03-30T08:20:07.871Z,95022.37
2019-03-30T08:22:36.952Z,95019.04
2019-03-30T08:25:06.782Z,95018.30
2019-03-30T08:27:35.399Z,95011.63
2019-03-30T08:30:04.910Z,95011.66
2019-03-30T08:32:33.597Z,95008.59
2019-03-30T08:35:02.218Z,94996.59
2019-03-30T08:37:30.955Z,95005.71
2019-03-30T08:39:59.637Z,95001.86
2019-03-30T08:42:28.309Z,94996.48
2019-03-30T08:44:57.054Z,94992.58
2019-03-30T08:47:25.815Z,94985.48
2019-03-30T08:49:54.419Z,94986.27
2019-03-30T08:52:23.097Z,94981.25
2019-03-30T08:54:51.828Z,94977.67
2019-03-30T08:57:22.017Z,94971.00
2019-03-30T08:59:50.692Z,94969.87
2019-03-30T09:02:19.445Z,94972.41
2019-03-30T09:04:48.050Z,94967.12
2019-03-30T09:07:16.760Z,94958.99
2019-03-30T09:09:47.063Z,94954.58
2019-03-30T09:12:15.763Z,94951.31
2019-03-30T09:14:44.406Z,94944.16
2019-03-30T09:17:13.084Z,94940.19
2019-03-30T09:19:41.715Z,94935.86
2019-03-30T09:22:10.534Z,94933.55
2019-03-30T09:24:39.161Z,94931.71
2019-03-30T09:27:07.763Z,94915.72
2019-03-30T09:29:36.465Z,94917.78
2019-03-30T09:32:14.461Z,94915.69
2019-03-30T09:34:35.578Z,94916.14
2019-03-30T09:37:04.208Z,94908.71
2019-03-30T09:39:32.898Z,94905.52
2019-03-30T09:42:01.505Z,94893.47
2019-03-30T09:44:30.115Z,94891.19
2019-03-30T09:46:58.851Z,94887.44
2019-03-30T09:49:27.547Z,94888.28
2019-03-30T09:51:56.164Z,94885.22
2019-03-30T09:54:24.813Z,94891.17
2019-03-30T09:56:53.526Z,94878.64
2019-03-30T09:59:22.205Z,94884.78
2019-03-30T10:01:50.871Z,94881.42
2019-03-30T10:04:19.562Z,94880.78
2019-03-30T10:06:48.214Z,94877.66
2019-03-30T10:09:16.946Z,94867.80
2019-03-30T10:11:45.618Z,94864.55
2019-03-30T10:14:14.230Z,94857.36
2019-03-30T10:16:42.913Z,94857.25
2019-03-30T10:19:11.532Z,94849.22
2019-03-30T10:21:40.206Z,94842.66
2019-03-30T10:24:08.836Z,94834.05
2019-03-30T10:26:37.525Z,94828.91
2019-03-30T10:29:06.136Z,94826.91
2019-03-30T10:31:34.847Z,94812.45
2019-03-30T10:34:03.479Z,94808.83
2019-03-30T10:36:32.284Z,94802.50
2019-03-30T10:39:00.981Z,94799.04
2019-03-30T10:41:29.672Z,94789.90
2019-03-30T10:43:58.355Z,94792.25
2019-03-30T10:46:28.507Z,94782.45
2019-03-30T10:48:57.113Z,94780.17
2019-03-30T10:51:25.794Z,94782.48
2019-03-30T10:53:54.422Z,94779.32
2019-03-30T10:56:23.104Z,94776.98
2019-03-30T10:58:51.718Z,94774.72
2019-03-30T11:01:20.339Z,94768.92
2019-03-30T11:03:49.007Z,94766.42
2019-03-30T11:06:17.693Z,94763.86
2019-03-30T11:08:46.312Z,94754.23
2019-03-30T11:11:14.961Z,94753.47
2019-03-30T11:13:43.583Z,94751.82
2019-03-30T11:16:12.265Z,94743.48
2019-03-30T11:18:40.973Z,94750.02
2019-03-30T11:21:09.656Z,94741.19
2019-03-30T11:23:40.327Z,94736.78
2019-03-30T11:26:09.030Z,94731.75
2019-03-30T11:28:37.715Z,94724.45
2019-03-30T11:31:06.439Z,94724.06
2019-03-30T11:33:35.068Z,94718.23
2019-03-30T11:36:03.786Z,94722.26
2019-03-30T11:38:32.408Z,94713.58
2019-03-30T11:41:01.125Z,94710.55
2019-03-30T11:43:30.007Z,94704.44
2019-03-30T11:45:58.663Z,94702.42
2019-03-30T11:48:27.446Z,94699.04
2019-03-30T11:50:56.131Z,94696.18
2019-03-30T11:53:24.771Z,94689.11
2019-03-30T11:55:53.475Z,94684.30
2019-03-30T11:58:22.235Z,94684.28
2019-03-30T12:00:50.885Z,94678.41
2019-03-30T12:03:19.579Z,94673.52
2019-03-30T12:05:48.201Z,94670.44
2019-03-30T12:08:16.891Z,94667.29
2019-03-30T12:10:45.547Z,94656.37
2019-03-30T12:13:14.262Z,94649.39
2019-03-30T12:15:42.951Z,94646.27
2019-03-30T12:18:11.631Z,94640.74
2019-03-30T12:20:40.268Z,94638.06
2019-03-30T12:23:08.974Z,94637.77
2019-03-30T12:25:37.596Z,94632.50
2019-03-30T12:28:06.283Z,94625.21
2019-03-30T12:30:34.905Z,94617.19
2019-03-30T12:33:03.556Z,94617.20
2019-03-30T12:35:32.247Z,94610.30
2019-03-30T12:38:00.942Z,94609.55
2019-03-30T12:40:29.651Z,94606.41
2019-03-30T12:42:58.303Z,94593.92
2019-03-30T12:45:28.540Z,94594.45
2019-03-30T12:47:57.180Z,94583.64
2019-03-30T12:50:25.808Z,94589.48
2019-03-30T12:52:54.509Z,94580.03
2019-03-30T12:55:23.195Z,94579.41
2019-03-30T12:57:51.821Z,94575.26
2019-03-30T13:00:20.499Z,94572.09
2019-03-30T13:02:49.124Z,94560.80
2019-03-30T13:05:17.808Z,94562.42
2019-03-30T13:07:46.468Z,94557.14
2019-03-30T13:10:15.186Z,94558.18
2019-03-30T13:12:43.876Z,94556.88
2019-03-30T13:15:12.907Z,94550.81
2019-03-30T13:17:41.557Z,94549.50
2019-03-30T13:20:10.228Z,94542.11
2019-03-30T13:22:40.447Z,94546.83
2019-03-30T13:25:09.062Z,94534.98
2019-03-30T13:27:37.701Z,94530.23
2019-03-30T13:30:08.470Z,94524.18
2019-03-30T13:32:37.151Z,94524.70
2019-03-30T13:35:06.190Z,94519.66
2019-03-30T13:37:34.867Z,94517.33
2019-03-30T13:40:04.191Z,94506.42
2019-03-30T13:42:32.815Z,94509.53
2019-03-30T13:45:03.536Z,94509.27
2019-03-30T13:47:31.933Z,94501.08
2019-03-30T13:50:00.574Z,94496.23
2019-03-30T13:52:29.259Z,94494.00
2019-03-30T13:54:57.896Z,94491.17
2019-03-30T13:57:26.591Z,94488.20
2019-03-30T13:59:55.210Z,94489.13
2019-03-30T14:02:23.886Z,94487.86
2019-03-30T14:04:52.693Z,94480.48
2019-03-30T14:07:21.416Z,94485.32
2019-03-30T14:09:50.125Z,94485.48
2019-03-30T14:12:18.737Z,94482.50
2019-03-30T14:14:47.417Z,94487.29
2019-03-30T14:17:16.046Z,94481.00
2019-03-30T14:19:44.716Z,94475.84
2019-03-30T14:22:13.343Z,94475.94
2019-03-30T14:24:42.016Z,94467.73
2019-03-30T14:27:10.640Z,94470.20
2019-03-30T14:29:42.423Z,94470.20
2019-03-30T14:32:11.040Z,94468.88
2019-03-30T14:34:39.774Z,94462.28
2019-03-30T14:37:08.481Z,94462.28
2019-03-30T14:39:37.094Z,94456.14
2019-03-30T14:42:05.791Z,94458.78
2019-03-30T14:44:34.395Z,94457.78
2019-03-30T14:47:03.041Z,94448.37
2019-03-30T14:49:31.722Z,94451.97
2019-03-30T14:52:00.331Z,94443.02
2019-03-30T14:54:29.104Z,94441.59
2019-03-30T14:56:57.781Z,94437.61
2019-03-30T14:59:26.409Z,94438.62
2019-03-30T15:01:55.088Z,94430.96
2019-03-30T15:04:23.700Z,94427.16
2019-03-30T15:06:52.365Z,94423.92
2019-03-30T15:09:21.047Z,94417.52
2019-03-30T15:11:49.714Z,94423.28
2019-03-30T15:14:18.344Z,94423.05
2019-03-30T15:16:47.013Z,94426.66
2019-03-30T15:19:15.645Z,94417.84
2019-03-30T15:21:44.324Z,94417.78
2019-03-30T15:24:12.999Z,94411.77
2019-03-30T15:26:41.776Z,94415.94
2019-03-30T15:29:10.458Z,94410.18
2019-03-30T15:31:39.066Z,94406.84
2019-03-30T15:34:07.779Z,94413.44
2019-03-30T15:36:36.391Z,94417.17
2019-03-30T15:39:07.167Z,94415.58
2019-03-30T15:41:35.808Z,94415.81
2019-03-30T15:44:04.490Z,94419.16
2019-03-30T15:46:33.160Z,94414.87
2019-03-30T15:49:01.856Z,94414.01
2019-03-30T15:51:30.476Z,94415.64
2019-03-30T15:53:59.186Z,94410.13
2019-03-30T15:56:27.805Z,94410.38
2019-03-30T15:58:56.487Z,94407.28
2019-03-30T16:01:25.156Z,94408.84
2019-03-30T16:03:53.917Z,94406.84
2019-03-30T16:06:22.618Z,94411.66
2019-03-30T16:08:51.396Z,94410.58
2019-03-30T16:11:20.069Z,94407.41
2019-03-30T16:13:48.683Z,94410.78
2019-03-30T16:16:17.366Z,94409.47
2019-03-30T16:18:46.030Z,94412.52
2019-03-30T16:21:14.773Z,94414.17
2019-03-30T16:23:43.428Z,94412.31
2019-03-30T16:26:12.243Z,94416.55
2019-03-30T16:28:40.987Z,94418.41
2019-03-30T16:31:09.681Z,94418.85
2019-03-30T16:33:38.325Z,94418.34
2019-03-30T16:36:07.035Z,94418.75
2019-03-30T16:38:35.745Z,94413.19
2019-03-30T16:41:05.604Z,94413.84
2019-03-30T16:43:34.326Z,94416.70
2019-03-30T16:46:03.049Z,94413.02
2019-03-30T16:48:33.587Z,94419.59
2019-03-30T16:51:02.533Z,94418.27
2019-03-30T16:53:31.176Z,94419.00
2019-03-30T16:55:59.873Z,94417.98
2019-03-30T16:58:28.642Z,94420.41
2019-03-30T17:00:57.319Z,94426.48
2019-03-30T17:03:26.277Z,94421.91
2019-03-30T17:05:55.142Z,94426.92
2019-03-30T17:08:26.746Z,94431.47
2019-03-30T17:10:55.382Z,94430.69
2019-03-30T17:13:26.989Z,94431.28
2019-03-30T17:15:58.567Z,94430.05
2019-03-30T17:18:26.143Z,94434.95
2019-03-30T17:20:56.253Z,94432.49
2019-03-30T17:23:25.099Z,94439.94
2019-03-30T17:25:55.113Z,94435.96
2019-03-30T17:28:23.847Z,94435.29
2019-03-30T17:30:52.986Z,94446.33
2019-03-30T17:33:21.730Z,94439.45
2019-03-30T17:35:50.436Z,94451.69
2019-03-30T17:38:19.158Z,94446.59
2019-03-30T17:40:49.425Z,94450.05
2019-03-30T17:43:18.299Z,94463.12
2019-03-30T17:45:48.059Z,94462.83
2019-03-30T17:48:16.862Z,94467.92
2019-03-30T17:50:50.841Z,94470.02
2019-03-30T17:53:21.104Z,94477.43
2019-03-30T17:55:50.217Z,94476.25
2019-03-30T17:58:19.097Z,94479.36
2019-03-30T18:00:48.454Z,94478.89
2019-03-30T18:03:17.181Z,94479.56
2019-03-30T18:05:46.147Z,94478.83
2019-03-30T18:08:16.210Z,94486.53
2019-03-30T18:10:45.005Z,94487.44
2019-03-30T18:13:13.625Z,94489.36
2019-03-30T18:15:42.357Z,94491.98
2019-03-30T18:18:11.008Z,94497.16
2019-03-30T18:20:39.696Z,94499.83
2019-03-30T18:23:08.331Z,94503.02
2019-03-30T18:25:37.026Z,94507.69
2019-03-30T18:28:05.652Z,94511.17
2019-03-30T18:30:36.890Z,94514.22
2019-03-30T18:33:06.222Z,94518.44
2019-03-30T18:35:36.206Z,94520.13
2019-03-30T18:38:05.294Z,94527.02
2019-03-30T18:40:35.182Z,94529.95
2019-03-30T18:43:03.853Z,94530.98
2019-03-30T18:45:32.616Z,94535.77
2019-03-30T18:48:16.576Z,94540.45
2019-03-30T18:50:47.363Z,94543.16
2019-03-30T18:53:16.931Z,94548.45
2019-03-30T18:55:45.640Z,94549.73
2019-03-30T18:58:14.387Z,94545.94
2019-03-30T19:00:43.019Z,94549.14
2019-03-30T19:03:11.684Z,94546.01
2019-03-30T19:05:40.471Z,94551.34
2019-03-30T19:08:09.262Z,94551.23
2019-03-30T19:10:37.935Z,94552.50
2019-03-30T19:13:06.674Z,94554.28
2019-03-30T19:15:35.366Z,94554.70
2019-03-30T19:18:05.780Z,94555.59
2019-03-30T19:20:34.599Z,94558.47
2019-03-30T19:23:03.255Z,94555.83
2019-03-30T19:25:31.903Z,94560.57
2019-03-30T19:28:00.610Z,94565.69
2019-03-30T19:30:29.341Z,94562.14
2019-03-30T19:32:59.700Z,94567.44
2019-03-30T19:35:28.545Z,94563.66
2019-03-30T19:37:57.181Z,94563.47
2019-03-30T19:40:25.908Z,94565.84
2019-03-30T19:42:54.637Z,94559.89
2019-03-30T19:45:23.304Z,94564.38
2019-03-30T19:47:51.906Z,94566.61
2019-03-30T19:50:20.684Z,94562.31
2019-03-30T19:52:50.983Z,94565.70
2019-03-30T19:55:19.707Z,94563.00
2019-03-30T19:57:48.388Z,94567.66
2019-03-30T20:00:17.303Z,94568.03
2019-03-30T20:02:46.002Z,94571.43
2019-03-30T20:05:14.957Z,94563.17
2019-03-30T20:07:43.673Z,94568.15
2019-03-30T20:10:12.427Z,94569.99
2019-03-30T20:12:41.155Z,94572.70
2019-03-30T20:15:11.542Z,94572.39
2019-03-30T20:17:40.195Z,94576.27
2019-03-30T20:20:09.311Z,94572.58
2019-03-30T20:22:37.925Z,94573.99
2019-03-30T20:25:09.096Z,94574.08
2019-03-30T20:27:37.786Z,94573.28
2019-03-30T20:30:10.371Z,94573.66
2019-03-30T20:32:39.073Z,94574.17
2019-03-30T20:35:08.645Z,94571.12
2019-03-30T20:37:37.332Z,94566.58
2019-03-30T20:40:09.093Z,94567.50
2019-03-30T20:42:37.878Z,94565.49
2019-03-30T20:45:07.699Z,94572.28
2019-03-30T20:47:36.451Z,94568.59
2019-03-30T20:50:06.974Z,94571.64
2019-03-30T20:52:35.652Z,94575.89
2019-03-30T20:55:05.566Z,94572.12
2019-03-30T20:57:34.243Z,94573.28
2019-03-30T21:00:03.037Z,94581.81
2019-03-30T21:02:31.747Z,94565.45
2019-03-30T21:05:00.443Z,94573.98
2019-03-30T21:07:29.093Z,94565.50
2019-03-30T21:09:57.795Z,94566.61
2019-03-30T21:12:26.496Z,94568.43
2019-03-30T21:14:55.127Z,94571.79
2019-03-30T21:17:23.850Z,94565.97
2019-03-30T21:19:52.543Z,94568.60
2019-03-30T21:22:21.207Z,94574.38
2019-03-30T21:24:49.845Z,94571.30
2019-03-30T21:27:18.587Z,94577.50
2019-03-30T21:29:54.367Z,94574.27
2019-03-30T21:32:17.639Z,94572.66
2019-03-30T21:34:46.326Z,94573.56
2019-03-30T21:37:15.070Z,94583.14
2019-03-30T21:39:43.808Z,94582.10
2019-03-30T21:42:12.502Z,94582.99
2019-03-30T21:44:41.238Z,94579.78
2019-03-30T21:47:09.911Z,94582.36
2019-03-30T21:49:38.535Z,94592.29
2019-03-30T21:52:07.225Z,94595.56
2019-03-30T21:54:35.921Z,94596.11
2019-03-30T21:57:04.547Z,94598.00
2019-03-30T21:59:33.220Z,94597.96
2019-03-30T22:02:01.915Z,94595.94
2019-03-30T22:04:30.609Z,94596.08
2019-03-30T22:06:59.980Z,94599.50
2019-03-30T22:09:29.256Z,94603.31
2019-03-30T22:11:57.938Z,94597.47
2019-03-30T22:14:26.731Z,94601.36
2019-03-30T22:16:55.611Z,94600.38
2019-03-30T22:19:24.305Z,94602.88
2019-03-30T22:21:53.095Z,94601.45
2019-03-30T22:24:21.787Z,94599.13
2019-03-30T22:26:50.475Z,94599.33
2019-03-30T22:29:19.258Z,94599.45
2019-03-30T22:31:47.947Z,94596.47
2019-03-30T22:34:18.337Z,94597.03
2019-03-30T22:36:46.983Z,94596.79
2019-03-30T22:39:15.606Z,94599.92
2019-03-30T22:41:44.279Z,94606.86
2019-03-30T22:44:12.906Z,94604.30
2019-03-30T22:46:41.644Z,94601.84
2019-03-30T22:49:10.290Z,94603.86
2019-03-30T22:51:38.993Z,94602.20
2019-03-30T22:54:07.619Z,94603.47
2019-03-30T22:56:36.297Z,94604.86
2019-03-30T22:59:04.910Z,94597.20
2019-03-30T23:01:33.689Z,94596.55
2019-03-30T23:04:02.304Z,94602.25
2019-03-30T23:06:30.984Z,94597.80
2019-03-30T23:08:59.610Z,94603.02
2019-03-30T23:11:28.351Z,94602.06
2019-03-30T23:13:56.966Z,94602.08
2019-03-30T23:16:25.647Z,94605.59
2019-03-30T23:18:54.360Z,94603.83
2019-03-30T23:21:23.085Z,94601.60
2019-03-30T23:23:51.778Z,94600.66
2019-03-30T23:26:20.407Z,94606.81
2019-03-30T23:28:49.096Z,94605.30
2019-03-30T23:31:17.798Z,94612.75
2019-03-30T23:33:46.416Z,94614.14
2019-03-30T23:36:15.097Z,94617.93
2019-03-30T23:38:43.753Z,94617.42
2019-03-30T23:41:12.438Z,94615.66
2019-03-30T23:43:41.135Z,94610.53
2019-03-30T23:46:10.040Z,94614.61
2019-03-30T23:48:38.750Z,94606.11
2019-03-30T23:51:07.414Z,94603.61
2019-03-30T23:53:36.027Z,94602.97
2019-03-30T23:56:07.828Z,94609.66
2019-03-30T23:58:36.431Z,94605.84
